sensor_id;sensor_type;location;lat;lon;timestamp;temperature;humidity
36552;DHT22;22559;54.176;12.102;2023-09-18T00:00:48;18.40;99.90
36552;DHT22;22559;54.176;12.102;2023-09-18T00:03:21;18.40;99.90
36552;DHT22;22559;54.176;12.102;2023-09-18T00:05:50;18.50;99.90
36552;DHT22;22559;54.176;12.102;2023-09-18T00:08:16;18.50;99.90
36552;DHT22;22559;54.176;12.102;2023-09-18T00:10:42;18.50;99.90
36552;DHT22;22559;54.176;12.102;2023-09-18T00:13:11;18.50;99.90
36552;DHT22;22559;54.176;12.102;2023-09-18T00:15:37;18.50;99.90
36552;DHT22;22559;54.176;12.102;2023-09-18T00:18:03;18.50;99.90
36552;DHT22;22559;54.176;12.102;2023-09-18T00:20:29;18.50;99.90
36552;DHT22;22559;54.176;12.102;2023-09-18T00:22:55;18.50;99.90
36552;DHT22;22559;54.176;12.102;2023-09-18T00:25:22;18.50;99.90
36552;DHT22;22559;54.176;12.102;2023-09-18T00:27:48;18.50;99.90
36552;DHT22;22559;54.176;12.102;2023-09-18T00:30:13;18.50;99.90
36552;DHT22;22559;54.176;12.102;2023-09-18T00:32:39;18.50;99.90
36552;DHT22;22559;54.176;12.102;2023-09-18T00:35:05;18.50;99.90
36552;DHT22;22559;54.176;12.102;2023-09-18T00:37:30;18.60;99.90
36552;DHT22;22559;54.176;12.102;2023-09-18T00:39:56;18.60;99.90
36552;DHT22;22559;54.176;12.102;2023-09-18T00:42:21;18.60;99.90
36552;DHT22;22559;54.176;12.102;2023-09-18T00:44:48;18.60;99.90
36552;DHT22;22559;54.176;12.102;2023-09-18T00:47:15;18.60;99.90
36552;DHT22;22559;54.176;12.102;2023-09-18T00:49:46;18.60;99.90
36552;DHT22;22559;54.176;12.102;2023-09-18T00:52:13;18.60;99.90
36552;DHT22;22559;54.176;12.102;2023-09-18T00:54:40;18.60;99.90
36552;DHT22;22559;54.176;12.102;2023-09-18T00:57:09;18.60;99.90
36552;DHT22;22559;54.176;12.102;2023-09-18T00:59:36;18.60;99.90
36552;DHT22;22559;54.176;12.102;2023-09-18T01:02:02;18.60;99.90
36552;DHT22;22559;54.176;12.102;2023-09-18T01:04:29;18.60;99.90
36552;DHT22;22559;54.176;12.102;2023-09-18T01:06:55;18.60;99.90
36552;DHT22;22559;54.176;12.102;2023-09-18T01:09:23;18.60;99.90
36552;DHT22;22559;54.176;12.102;2023-09-18T01:12:05;18.60;99.90
36552;DHT22;22559;54.176;12.102;2023-09-18T01:17:48;18.50;99.90
36552;DHT22;22559;54.176;12.102;2023-09-18T01:20:14;18.60;99.90
36552;DHT22;22559;54.176;12.102;2023-09-18T01:22:40;18.60;99.90
36552;DHT22;22559;54.176;12.102;2023-09-18T01:25:06;18.60;99.90
36552;DHT22;22559;54.176;12.102;2023-09-18T01:27:32;18.60;99.90
36552;DHT22;22559;54.176;12.102;2023-09-18T01:29:58;18.50;99.90
36552;DHT22;22559;54.176;12.102;2023-09-18T01:32:26;18.50;99.90
36552;DHT22;22559;54.176;12.102;2023-09-18T01:34:54;18.50;99.90
36552;DHT22;22559;54.176;12.102;2023-09-18T01:37:24;18.50;99.90
36552;DHT22;22559;54.176;12.102;2023-09-18T01:39:51;18.50;99.90
36552;DHT22;22559;54.176;12.102;2023-09-18T01:42:18;18.50;99.90
36552;DHT22;22559;54.176;12.102;2023-09-18T01:44:44;18.50;99.90
36552;DHT22;22559;54.176;12.102;2023-09-18T01:47:16;18.50;99.90
36552;DHT22;22559;54.176;12.102;2023-09-18T01:49:42;18.50;99.90
36552;DHT22;22559;54.176;12.102;2023-09-18T01:52:09;18.50;99.90
36552;DHT22;22559;54.176;12.102;2023-09-18T01:54:35;18.40;99.90
36552;DHT22;22559;54.176;12.102;2023-09-18T01:57:02;18.40;99.90
36552;DHT22;22559;54.176;12.102;2023-09-18T01:59:28;18.40;99.90
36552;DHT22;22559;54.176;12.102;2023-09-18T02:01:54;18.40;99.90
36552;DHT22;22559;54.176;12.102;2023-09-18T02:04:20;18.30;99.90
36552;DHT22;22559;54.176;12.102;2023-09-18T02:06:47;18.30;99.90
36552;DHT22;22559;54.176;12.102;2023-09-18T02:09:13;18.40;99.90
36552;DHT22;22559;54.176;12.102;2023-09-18T02:11:42;18.30;99.90
36552;DHT22;22559;54.176;12.102;2023-09-18T02:14:09;18.30;99.90
36552;DHT22;22559;54.176;12.102;2023-09-18T02:16:39;18.30;99.90
36552;DHT22;22559;54.176;12.102;2023-09-18T02:19:12;18.30;99.90
36552;DHT22;22559;54.176;12.102;2023-09-18T02:21:45;18.20;99.90
36552;DHT22;22559;54.176;12.102;2023-09-18T02:24:11;18.20;99.90
36552;DHT22;22559;54.176;12.102;2023-09-18T02:26:37;18.20;99.90
36552;DHT22;22559;54.176;12.102;2023-09-18T02:29:07;18.20;99.90
36552;DHT22;22559;54.176;12.102;2023-09-18T02:31:36;18.20;99.90
36552;DHT22;22559;54.176;12.102;2023-09-18T02:34:02;18.20;99.90
36552;DHT22;22559;54.176;12.102;2023-09-18T02:36:27;18.20;99.90
36552;DHT22;22559;54.176;12.102;2023-09-18T02:38:53;18.30;99.90
36552;DHT22;22559;54.176;12.102;2023-09-18T02:41:18;18.30;99.90
36552;DHT22;22559;54.176;12.102;2023-09-18T02:43:44;18.20;99.90
36552;DHT22;22559;54.176;12.102;2023-09-18T02:46:10;18.20;99.90
36552;DHT22;22559;54.176;12.102;2023-09-18T02:48:35;18.10;99.90
36552;DHT22;22559;54.176;12.102;2023-09-18T02:51:02;18.20;99.90
36552;DHT22;22559;54.176;12.102;2023-09-18T02:53:28;18.10;99.90
36552;DHT22;22559;54.176;12.102;2023-09-18T02:55:55;18.10;99.90
36552;DHT22;22559;54.176;12.102;2023-09-18T02:58:22;18.10;99.90
36552;DHT22;22559;54.176;12.102;2023-09-18T03:00:49;18.10;99.90
36552;DHT22;22559;54.176;12.102;2023-09-18T03:03:16;18.10;99.90
36552;DHT22;22559;54.176;12.102;2023-09-18T03:05:42;18.10;99.90
36552;DHT22;22559;54.176;12.102;2023-09-18T03:08:09;18.10;99.90
36552;DHT22;22559;54.176;12.102;2023-09-18T03:10:36;18.20;99.90
36552;DHT22;22559;54.176;12.102;2023-09-18T03:13:03;18.20;99.90
36552;DHT22;22559;54.176;12.102;2023-09-18T03:15:29;18.20;99.90
36552;DHT22;22559;54.176;12.102;2023-09-18T03:17:57;18.10;99.90
36552;DHT22;22559;54.176;12.102;2023-09-18T03:20:27;18.10;99.90
36552;DHT22;22559;54.176;12.102;2023-09-18T03:22:55;18.00;99.90
36552;DHT22;22559;54.176;12.102;2023-09-18T03:25:21;18.00;99.90
36552;DHT22;22559;54.176;12.102;2023-09-18T03:27:47;17.90;99.90
36552;DHT22;22559;54.176;12.102;2023-09-18T03:30:13;17.90;99.90
36552;DHT22;22559;54.176;12.102;2023-09-18T03:32:41;17.90;99.90
36552;DHT22;22559;54.176;12.102;2023-09-18T03:35:08;17.90;99.90
36552;DHT22;22559;54.176;12.102;2023-09-18T03:37:41;17.90;99.90
36552;DHT22;22559;54.176;12.102;2023-09-18T03:40:08;17.90;99.90
36552;DHT22;22559;54.176;12.102;2023-09-18T03:42:34;17.90;99.90
36552;DHT22;22559;54.176;12.102;2023-09-18T03:44:59;17.90;99.90
36552;DHT22;22559;54.176;12.102;2023-09-18T03:47:25;17.90;99.90
36552;DHT22;22559;54.176;12.102;2023-09-18T03:49:51;17.90;99.90
36552;DHT22;22559;54.176;12.102;2023-09-18T03:52:16;17.90;99.90
36552;DHT22;22559;54.176;12.102;2023-09-18T03:54:42;17.90;99.90
36552;DHT22;22559;54.176;12.102;2023-09-18T03:57:08;17.90;99.90
36552;DHT22;22559;54.176;12.102;2023-09-18T03:59:33;17.90;99.90
36552;DHT22;22559;54.176;12.102;2023-09-18T04:01:59;18.00;99.90
36552;DHT22;22559;54.176;12.102;2023-09-18T04:04:24;18.00;99.90
36552;DHT22;22559;54.176;12.102;2023-09-18T04:06:50;18.00;99.90
36552;DHT22;22559;54.176;12.102;2023-09-18T04:09:15;18.00;99.90
36552;DHT22;22559;54.176;12.102;2023-09-18T04:11:43;18.00;99.90
36552;DHT22;22559;54.176;12.102;2023-09-18T04:14:09;18.00;99.90
36552;DHT22;22559;54.176;12.102;2023-09-18T04:16:34;18.00;99.90
36552;DHT22;22559;54.176;12.102;2023-09-18T04:19:04;18.10;99.90
36552;DHT22;22559;54.176;12.102;2023-09-18T04:21:30;18.10;99.90
36552;DHT22;22559;54.176;12.102;2023-09-18T04:23:56;18.10;99.90
36552;DHT22;22559;54.176;12.102;2023-09-18T04:26:24;18.10;99.90
36552;DHT22;22559;54.176;12.102;2023-09-18T04:28:55;18.10;99.90
36552;DHT22;22559;54.176;12.102;2023-09-18T04:31:20;18.10;99.90
36552;DHT22;22559;54.176;12.102;2023-09-18T04:33:46;18.10;99.90
36552;DHT22;22559;54.176;12.102;2023-09-18T04:36:11;18.00;99.90
36552;DHT22;22559;54.176;12.102;2023-09-18T04:38:37;18.00;99.90
36552;DHT22;22559;54.176;12.102;2023-09-18T04:41:03;18.00;99.90
36552;DHT22;22559;54.176;12.102;2023-09-18T04:43:28;17.90;99.90
36552;DHT22;22559;54.176;12.102;2023-09-18T04:45:57;17.90;99.90
36552;DHT22;22559;54.176;12.102;2023-09-18T04:48:22;17.90;99.90
36552;DHT22;22559;54.176;12.102;2023-09-18T04:50:48;18.00;99.90
36552;DHT22;22559;54.176;12.102;2023-09-18T04:53:14;17.90;99.90
36552;DHT22;22559;54.176;12.102;2023-09-18T04:55:40;17.90;99.90
36552;DHT22;22559;54.176;12.102;2023-09-18T04:58:05;17.90;99.90
36552;DHT22;22559;54.176;12.102;2023-09-18T05:00:32;17.90;99.90
36552;DHT22;22559;54.176;12.102;2023-09-18T05:02:59;17.90;99.90
36552;DHT22;22559;54.176;12.102;2023-09-18T05:05:27;17.80;99.90
36552;DHT22;22559;54.176;12.102;2023-09-18T05:07:52;17.80;99.90
36552;DHT22;22559;54.176;12.102;2023-09-18T05:10:18;17.80;99.90
36552;DHT22;22559;54.176;12.102;2023-09-18T05:12:44;17.80;99.90
36552;DHT22;22559;54.176;12.102;2023-09-18T05:15:10;17.80;99.90
36552;DHT22;22559;54.176;12.102;2023-09-18T05:17:44;17.80;99.90
36552;DHT22;22559;54.176;12.102;2023-09-18T05:20:13;17.80;99.90
36552;DHT22;22559;54.176;12.102;2023-09-18T05:22:39;17.80;99.90
36552;DHT22;22559;54.176;12.102;2023-09-18T05:25:06;17.90;99.90
36552;DHT22;22559;54.176;12.102;2023-09-18T05:27:32;17.90;99.90
36552;DHT22;22559;54.176;12.102;2023-09-18T05:29:58;17.90;99.90
36552;DHT22;22559;54.176;12.102;2023-09-18T05:32:23;17.90;99.90
36552;DHT22;22559;54.176;12.102;2023-09-18T05:34:49;18.00;99.90
36552;DHT22;22559;54.176;12.102;2023-09-18T05:37:15;18.00;99.90
36552;DHT22;22559;54.176;12.102;2023-09-18T05:39:41;18.00;99.90
36552;DHT22;22559;54.176;12.102;2023-09-18T05:42:06;18.00;99.90
36552;DHT22;22559;54.176;12.102;2023-09-18T05:44:32;18.00;99.90
36552;DHT22;22559;54.176;12.102;2023-09-18T05:46:58;18.00;99.90
36552;DHT22;22559;54.176;12.102;2023-09-18T05:49:24;18.10;99.90
36552;DHT22;22559;54.176;12.102;2023-09-18T05:51:50;18.20;99.90
36552;DHT22;22559;54.176;12.102;2023-09-18T05:54:15;18.30;99.90
36552;DHT22;22559;54.176;12.102;2023-09-18T05:56:41;18.30;99.90
36552;DHT22;22559;54.176;12.102;2023-09-18T05:59:07;18.30;99.90
36552;DHT22;22559;54.176;12.102;2023-09-18T06:01:32;18.30;99.90
36552;DHT22;22559;54.176;12.102;2023-09-18T06:03:58;18.30;99.90
36552;DHT22;22559;54.176;12.102;2023-09-18T06:06:24;18.40;99.90
36552;DHT22;22559;54.176;12.102;2023-09-18T06:08:51;18.40;99.90
36552;DHT22;22559;54.176;12.102;2023-09-18T06:11:19;18.40;99.90
36552;DHT22;22559;54.176;12.102;2023-09-18T06:13:45;18.40;99.90
36552;DHT22;22559;54.176;12.102;2023-09-18T06:16:10;18.50;99.90
36552;DHT22;22559;54.176;12.102;2023-09-18T06:18:36;18.60;99.90
36552;DHT22;22559;54.176;12.102;2023-09-18T06:21:04;18.60;99.90
36552;DHT22;22559;54.176;12.102;2023-09-18T06:23:30;18.60;99.90
36552;DHT22;22559;54.176;12.102;2023-09-18T06:25:57;18.70;99.90
36552;DHT22;22559;54.176;12.102;2023-09-18T06:28:24;18.80;99.90
36552;DHT22;22559;54.176;12.102;2023-09-18T06:30:50;19.00;99.90
36552;DHT22;22559;54.176;12.102;2023-09-18T06:33:16;19.00;99.90
36552;DHT22;22559;54.176;12.102;2023-09-18T06:35:42;19.00;99.90
36552;DHT22;22559;54.176;12.102;2023-09-18T06:38:07;19.10;99.90
36552;DHT22;22559;54.176;12.102;2023-09-18T06:40:35;19.20;99.90
36552;DHT22;22559;54.176;12.102;2023-09-18T06:43:01;19.20;99.90
36552;DHT22;22559;54.176;12.102;2023-09-18T06:45:27;19.30;99.90
36552;DHT22;22559;54.176;12.102;2023-09-18T06:47:53;19.30;99.90
36552;DHT22;22559;54.176;12.102;2023-09-18T06:50:19;19.40;99.90
36552;DHT22;22559;54.176;12.102;2023-09-18T06:52:45;19.30;99.90
36552;DHT22;22559;54.176;12.102;2023-09-18T06:55:12;19.40;99.90
36552;DHT22;22559;54.176;12.102;2023-09-18T06:57:37;19.40;99.90
36552;DHT22;22559;54.176;12.102;2023-09-18T07:00:04;19.40;99.90
36552;DHT22;22559;54.176;12.102;2023-09-18T07:02:30;19.50;99.90
36552;DHT22;22559;54.176;12.102;2023-09-18T07:04:56;19.50;99.90
36552;DHT22;22559;54.176;12.102;2023-09-18T07:07:22;19.50;99.90
36552;DHT22;22559;54.176;12.102;2023-09-18T07:09:51;19.50;99.90
36552;DHT22;22559;54.176;12.102;2023-09-18T07:12:17;19.50;99.90
36552;DHT22;22559;54.176;12.102;2023-09-18T07:14:45;19.60;99.90
36552;DHT22;22559;54.176;12.102;2023-09-18T07:17:11;19.70;99.90
36552;DHT22;22559;54.176;12.102;2023-09-18T07:19:36;19.90;99.90
36552;DHT22;22559;54.176;12.102;2023-09-18T07:22:02;20.00;99.90
36552;DHT22;22559;54.176;12.102;2023-09-18T07:24:28;20.00;99.90
36552;DHT22;22559;54.176;12.102;2023-09-18T07:26:54;20.10;99.90
36552;DHT22;22559;54.176;12.102;2023-09-18T07:29:20;20.10;99.90
36552;DHT22;22559;54.176;12.102;2023-09-18T07:31:46;20.20;99.90
36552;DHT22;22559;54.176;12.102;2023-09-18T07:34:13;20.20;99.90
36552;DHT22;22559;54.176;12.102;2023-09-18T07:36:39;20.30;99.90
36552;DHT22;22559;54.176;12.102;2023-09-18T07:39:05;20.40;99.90
36552;DHT22;22559;54.176;12.102;2023-09-18T07:41:32;20.40;99.90
36552;DHT22;22559;54.176;12.102;2023-09-18T07:43:58;20.60;99.90
36552;DHT22;22559;54.176;12.102;2023-09-18T07:46:25;20.70;99.90
36552;DHT22;22559;54.176;12.102;2023-09-18T07:48:50;20.70;99.90
36552;DHT22;22559;54.176;12.102;2023-09-18T07:51:16;20.80;99.90
36552;DHT22;22559;54.176;12.102;2023-09-18T07:53:42;20.80;99.90
36552;DHT22;22559;54.176;12.102;2023-09-18T07:56:08;21.00;99.90
36552;DHT22;22559;54.176;12.102;2023-09-18T07:58:34;21.10;99.90
36552;DHT22;22559;54.176;12.102;2023-09-18T08:01:04;21.20;99.90
36552;DHT22;22559;54.176;12.102;2023-09-18T08:03:35;21.30;99.90
36552;DHT22;22559;54.176;12.102;2023-09-18T08:06:01;21.50;99.90
36552;DHT22;22559;54.176;12.102;2023-09-18T08:08:27;21.60;99.90
36552;DHT22;22559;54.176;12.102;2023-09-18T08:10:53;21.70;99.90
36552;DHT22;22559;54.176;12.102;2023-09-18T08:13:19;21.90;99.90
36552;DHT22;22559;54.176;12.102;2023-09-18T08:15:49;22.00;99.90
36552;DHT22;22559;54.176;12.102;2023-09-18T08:18:15;22.10;99.90
36552;DHT22;22559;54.176;12.102;2023-09-18T08:20:43;22.30;99.90
36552;DHT22;22559;54.176;12.102;2023-09-18T08:23:10;22.40;99.90
36552;DHT22;22559;54.176;12.102;2023-09-18T08:25:36;22.50;99.90
36552;DHT22;22559;54.176;12.102;2023-09-18T08:28:03;22.60;99.90
36552;DHT22;22559;54.176;12.102;2023-09-18T08:30:30;22.70;99.90
36552;DHT22;22559;54.176;12.102;2023-09-18T08:32:56;22.60;99.90
36552;DHT22;22559;54.176;12.102;2023-09-18T08:35:21;22.70;99.90
36552;DHT22;22559;54.176;12.102;2023-09-18T08:37:48;23.00;99.90
36552;DHT22;22559;54.176;12.102;2023-09-18T08:40:14;23.40;99.90
36552;DHT22;22559;54.176;12.102;2023-09-18T08:42:47;24.00;99.90
36552;DHT22;22559;54.176;12.102;2023-09-18T08:45:23;24.50;99.90
36552;DHT22;22559;54.176;12.102;2023-09-18T08:47:49;24.90;99.90
36552;DHT22;22559;54.176;12.102;2023-09-18T08:50:17;25.10;99.90
36552;DHT22;22559;54.176;12.102;2023-09-18T08:52:43;25.40;99.90
36552;DHT22;22559;54.176;12.102;2023-09-18T08:55:11;25.60;99.90
36552;DHT22;22559;54.176;12.102;2023-09-18T08:57:37;25.70;99.90
36552;DHT22;22559;54.176;12.102;2023-09-18T09:00:04;25.70;99.90
36552;DHT22;22559;54.176;12.102;2023-09-18T09:02:33;26.10;99.90
36552;DHT22;22559;54.176;12.102;2023-09-18T09:04:59;26.10;99.90
36552;DHT22;22559;54.176;12.102;2023-09-18T09:07:26;26.20;99.90
36552;DHT22;22559;54.176;12.102;2023-09-18T09:09:51;25.90;99.90
36552;DHT22;22559;54.176;12.102;2023-09-18T09:15:12;26.10;99.90
36552;DHT22;22559;54.176;12.102;2023-09-18T09:17:38;25.90;99.90
36552;DHT22;22559;54.176;12.102;2023-09-18T09:20:15;25.70;99.90
36552;DHT22;22559;54.176;12.102;2023-09-18T09:22:41;25.50;99.90
36552;DHT22;22559;54.176;12.102;2023-09-18T09:25:24;25.30;99.90
36552;DHT22;22559;54.176;12.102;2023-09-18T09:27:55;25.20;99.90
36552;DHT22;22559;54.176;12.102;2023-09-18T09:30:23;25.50;99.90
36552;DHT22;22559;54.176;12.102;2023-09-18T09:32:51;25.90;99.90
36552;DHT22;22559;54.176;12.102;2023-09-18T09:35:32;26.20;99.90
36552;DHT22;22559;54.176;12.102;2023-09-18T09:38:12;26.50;99.90
36552;DHT22;22559;54.176;12.102;2023-09-18T09:40:41;26.70;99.90
36552;DHT22;22559;54.176;12.102;2023-09-18T09:43:11;26.50;99.90
36552;DHT22;22559;54.176;12.102;2023-09-18T09:45:40;26.30;99.90
36552;DHT22;22559;54.176;12.102;2023-09-18T09:48:07;26.00;99.90
36552;DHT22;22559;54.176;12.102;2023-09-18T09:50:33;25.60;99.90
36552;DHT22;22559;54.176;12.102;2023-09-18T09:53:00;25.30;99.90
36552;DHT22;22559;54.176;12.102;2023-09-18T09:57:58;25.00;99.90
36552;DHT22;22559;54.176;12.102;2023-09-18T10:00:41;25.10;99.90
36552;DHT22;22559;54.176;12.102;2023-09-18T10:03:17;25.30;99.90
36552;DHT22;22559;54.176;12.102;2023-09-18T10:05:45;25.30;99.90
36552;DHT22;22559;54.176;12.102;2023-09-18T10:08:12;25.30;99.90
36552;DHT22;22559;54.176;12.102;2023-09-18T10:10:43;25.30;99.90
36552;DHT22;22559;54.176;12.102;2023-09-18T10:15:42;25.30;99.90
36552;DHT22;22559;54.176;12.102;2023-09-18T10:21:26;25.70;99.90
36552;DHT22;22559;54.176;12.102;2023-09-18T10:24:19;25.90;99.90
36552;DHT22;22559;54.176;12.102;2023-09-18T10:26:59;26.00;99.90
36552;DHT22;22559;54.176;12.102;2023-09-18T10:29:27;25.90;99.90
36552;DHT22;22559;54.176;12.102;2023-09-18T10:31:54;25.80;99.90
36552;DHT22;22559;54.176;12.102;2023-09-18T10:34:23;25.90;99.90
36552;DHT22;22559;54.176;12.102;2023-09-18T10:36:53;26.10;99.90
36552;DHT22;22559;54.176;12.102;2023-09-18T10:39:20;26.20;99.90
36552;DHT22;22559;54.176;12.102;2023-09-18T10:41:52;26.30;99.90
36552;DHT22;22559;54.176;12.102;2023-09-18T10:44:18;26.40;99.90
36552;DHT22;22559;54.176;12.102;2023-09-18T10:46:48;26.50;99.90
36552;DHT22;22559;54.176;12.102;2023-09-18T10:49:18;26.70;99.90
36552;DHT22;22559;54.176;12.102;2023-09-18T10:51:46;26.80;99.90
36552;DHT22;22559;54.176;12.102;2023-09-18T10:54:16;27.30;99.90
36552;DHT22;22559;54.176;12.102;2023-09-18T10:56:42;27.90;99.90
36552;DHT22;22559;54.176;12.102;2023-09-18T10:59:08;28.40;99.90
36552;DHT22;22559;54.176;12.102;2023-09-18T11:01:35;28.70;99.90
36552;DHT22;22559;54.176;12.102;2023-09-18T11:04:05;28.80;99.90
36552;DHT22;22559;54.176;12.102;2023-09-18T11:09:27;28.20;99.90
36552;DHT22;22559;54.176;12.102;2023-09-18T11:14:24;27.70;99.90
36552;DHT22;22559;54.176;12.102;2023-09-18T11:17:19;27.90;99.90
36552;DHT22;22559;54.176;12.102;2023-09-18T11:20:02;27.80;99.90
36552;DHT22;22559;54.176;12.102;2023-09-18T11:22:27;27.70;99.90
36552;DHT22;22559;54.176;12.102;2023-09-18T11:24:53;27.30;99.90
36552;DHT22;22559;54.176;12.102;2023-09-18T11:27:24;26.90;99.90
36552;DHT22;22559;54.176;12.102;2023-09-18T11:29:51;26.50;99.90
36552;DHT22;22559;54.176;12.102;2023-09-18T11:32:37;26.30;99.90
36552;DHT22;22559;54.176;12.102;2023-09-18T11:35:08;26.20;99.90
36552;DHT22;22559;54.176;12.102;2023-09-18T11:37:34;26.00;99.90
36552;DHT22;22559;54.176;12.102;2023-09-18T11:40:00;25.90;99.90
36552;DHT22;22559;54.176;12.102;2023-09-18T11:42:26;25.80;99.90
36552;DHT22;22559;54.176;12.102;2023-09-18T11:44:52;25.70;99.90
36552;DHT22;22559;54.176;12.102;2023-09-18T11:47:20;25.60;99.90
36552;DHT22;22559;54.176;12.102;2023-09-18T11:49:59;25.50;99.90
36552;DHT22;22559;54.176;12.102;2023-09-18T11:52:26;25.40;99.90
36552;DHT22;22559;54.176;12.102;2023-09-18T11:54:54;25.40;99.90
36552;DHT22;22559;54.176;12.102;2023-09-18T11:57:20;25.30;99.90
36552;DHT22;22559;54.176;12.102;2023-09-18T11:59:46;25.30;99.90
36552;DHT22;22559;54.176;12.102;2023-09-18T12:02:13;25.30;99.90
36552;DHT22;22559;54.176;12.102;2023-09-18T12:04:49;25.30;99.90
36552;DHT22;22559;54.176;12.102;2023-09-18T12:07:15;25.20;99.90
36552;DHT22;22559;54.176;12.102;2023-09-18T12:09:41;25.20;99.90
36552;DHT22;22559;54.176;12.102;2023-09-18T12:12:06;25.10;99.90
36552;DHT22;22559;54.176;12.102;2023-09-18T12:14:34;25.00;99.90
36552;DHT22;22559;54.176;12.102;2023-09-18T12:17:03;25.00;99.90
36552;DHT22;22559;54.176;12.102;2023-09-18T12:19:30;25.00;99.90
36552;DHT22;22559;54.176;12.102;2023-09-18T12:21:56;25.00;99.90
36552;DHT22;22559;54.176;12.102;2023-09-18T12:24:23;25.10;99.90
36552;DHT22;22559;54.176;12.102;2023-09-18T12:26:49;25.10;99.90
36552;DHT22;22559;54.176;12.102;2023-09-18T12:29:16;25.10;99.90
36552;DHT22;22559;54.176;12.102;2023-09-18T12:31:42;25.10;99.90
36552;DHT22;22559;54.176;12.102;2023-09-18T12:34:18;25.10;99.90
36552;DHT22;22559;54.176;12.102;2023-09-18T12:36:44;25.00;99.90
36552;DHT22;22559;54.176;12.102;2023-09-18T12:39:13;25.00;99.90
36552;DHT22;22559;54.176;12.102;2023-09-18T12:41:42;24.90;99.90
36552;DHT22;22559;54.176;12.102;2023-09-18T12:44:08;24.90;99.90
36552;DHT22;22559;54.176;12.102;2023-09-18T12:46:36;24.90;99.90
36552;DHT22;22559;54.176;12.102;2023-09-18T12:51:44;24.90;99.90
36552;DHT22;22559;54.176;12.102;2023-09-18T12:54:10;24.90;99.90
36552;DHT22;22559;54.176;12.102;2023-09-18T12:56:40;24.90;99.90
36552;DHT22;22559;54.176;12.102;2023-09-18T12:59:06;24.80;99.90
36552;DHT22;22559;54.176;12.102;2023-09-18T13:01:32;24.80;99.90
36552;DHT22;22559;54.176;12.102;2023-09-18T13:03:58;24.70;99.90
36552;DHT22;22559;54.176;12.102;2023-09-18T13:06:30;24.60;99.90
36552;DHT22;22559;54.176;12.102;2023-09-18T13:09:15;24.60;99.90
36552;DHT22;22559;54.176;12.102;2023-09-18T13:11:56;24.60;99.90
36552;DHT22;22559;54.176;12.102;2023-09-18T13:14:22;24.60;99.90
36552;DHT22;22559;54.176;12.102;2023-09-18T13:16:48;24.60;99.90
36552;DHT22;22559;54.176;12.102;2023-09-18T13:19:14;24.70;99.90
36552;DHT22;22559;54.176;12.102;2023-09-18T13:21:47;24.70;99.90
36552;DHT22;22559;54.176;12.102;2023-09-18T13:24:29;24.70;99.90
36552;DHT22;22559;54.176;12.102;2023-09-18T13:26:56;24.50;99.90
36552;DHT22;22559;54.176;12.102;2023-09-18T13:29:23;24.40;99.90
36552;DHT22;22559;54.176;12.102;2023-09-18T13:31:49;24.40;99.90
36552;DHT22;22559;54.176;12.102;2023-09-18T13:34:16;24.40;99.90
36552;DHT22;22559;54.176;12.102;2023-09-18T13:36:47;24.40;99.90
36552;DHT22;22559;54.176;12.102;2023-09-18T13:39:13;24.40;99.90
36552;DHT22;22559;54.176;12.102;2023-09-18T13:41:39;24.40;99.90
36552;DHT22;22559;54.176;12.102;2023-09-18T13:44:06;24.40;99.90
36552;DHT22;22559;54.176;12.102;2023-09-18T13:46:32;24.50;99.90
36552;DHT22;22559;54.176;12.102;2023-09-18T13:49:02;24.50;99.90
36552;DHT22;22559;54.176;12.102;2023-09-18T13:51:29;24.60;99.90
36552;DHT22;22559;54.176;12.102;2023-09-18T13:53:55;24.60;99.90
36552;DHT22;22559;54.176;12.102;2023-09-18T13:56:22;24.60;99.90
36552;DHT22;22559;54.176;12.102;2023-09-18T13:58:47;24.60;99.90
36552;DHT22;22559;54.176;12.102;2023-09-18T14:01:13;24.70;99.90
36552;DHT22;22559;54.176;12.102;2023-09-18T14:03:41;24.70;99.90
36552;DHT22;22559;54.176;12.102;2023-09-18T14:06:08;24.70;99.90
36552;DHT22;22559;54.176;12.102;2023-09-18T14:08:34;24.90;99.90
36552;DHT22;22559;54.176;12.102;2023-09-18T14:11:00;25.00;99.90
36552;DHT22;22559;54.176;12.102;2023-09-18T14:13:26;25.20;99.90
36552;DHT22;22559;54.176;12.102;2023-09-18T14:15:51;25.30;99.90
36552;DHT22;22559;54.176;12.102;2023-09-18T14:18:17;25.20;99.90
36552;DHT22;22559;54.176;12.102;2023-09-18T14:20:43;25.20;99.90
36552;DHT22;22559;54.176;12.102;2023-09-18T14:23:09;25.20;99.90
36552;DHT22;22559;54.176;12.102;2023-09-18T14:25:35;25.10;99.90
36552;DHT22;22559;54.176;12.102;2023-09-18T14:28:01;25.10;99.90
36552;DHT22;22559;54.176;12.102;2023-09-18T14:30:27;25.20;99.90
36552;DHT22;22559;54.176;12.102;2023-09-18T14:32:57;25.30;99.90
36552;DHT22;22559;54.176;12.102;2023-09-18T14:35:22;25.30;99.90
36552;DHT22;22559;54.176;12.102;2023-09-18T14:37:48;25.20;99.90
36552;DHT22;22559;54.176;12.102;2023-09-18T14:40:14;25.10;99.90
36552;DHT22;22559;54.176;12.102;2023-09-18T14:42:40;25.10;99.90
36552;DHT22;22559;54.176;12.102;2023-09-18T14:45:06;25.10;99.90
36552;DHT22;22559;54.176;12.102;2023-09-18T14:47:32;25.00;99.90
36552;DHT22;22559;54.176;12.102;2023-09-18T14:49:58;25.00;99.90
36552;DHT22;22559;54.176;12.102;2023-09-18T14:52:24;24.90;99.90
36552;DHT22;22559;54.176;12.102;2023-09-18T14:54:51;24.70;99.90
36552;DHT22;22559;54.176;12.102;2023-09-18T14:57:17;24.70;99.90
36552;DHT22;22559;54.176;12.102;2023-09-18T14:59:43;24.60;99.90
36552;DHT22;22559;54.176;12.102;2023-09-18T15:02:13;24.60;99.90
36552;DHT22;22559;54.176;12.102;2023-09-18T15:04:40;24.50;99.90
36552;DHT22;22559;54.176;12.102;2023-09-18T15:07:06;24.50;99.90
36552;DHT22;22559;54.176;12.102;2023-09-18T15:09:32;24.60;99.90
36552;DHT22;22559;54.176;12.102;2023-09-18T15:11:57;24.70;99.90
36552;DHT22;22559;54.176;12.102;2023-09-18T15:14:23;24.70;99.90
36552;DHT22;22559;54.176;12.102;2023-09-18T15:16:49;24.70;99.90
36552;DHT22;22559;54.176;12.102;2023-09-18T15:19:15;24.70;99.90
36552;DHT22;22559;54.176;12.102;2023-09-18T15:21:42;24.60;99.90
36552;DHT22;22559;54.176;12.102;2023-09-18T15:24:09;24.60;99.90
36552;DHT22;22559;54.176;12.102;2023-09-18T15:26:34;24.60;99.90
36552;DHT22;22559;54.176;12.102;2023-09-18T15:29:00;24.60;99.90
36552;DHT22;22559;54.176;12.102;2023-09-18T15:31:27;24.60;99.90
36552;DHT22;22559;54.176;12.102;2023-09-18T15:33:52;24.60;99.90
36552;DHT22;22559;54.176;12.102;2023-09-18T15:36:20;24.50;99.90
36552;DHT22;22559;54.176;12.102;2023-09-18T15:38:46;24.40;99.90